createdAt,value
2018-06-12T00:02:14.298Z,4.47
2018-06-12T00:04:46.077Z,3.60
2018-06-12T00:07:17.694Z,3.80
2018-06-12T00:09:49.330Z,3.87
2018-06-12T00:12:20.992Z,3.37
2018-06-12T00:14:52.563Z,4.87
2018-06-12T00:17:24.115Z,3.43
2018-06-12T00:19:55.852Z,3.30
2018-06-12T00:22:27.509Z,4.03
2018-06-12T00:24:59.100Z,4.70
2018-06-12T00:27:30.916Z,5.33
2018-06-12T00:30:02.584Z,4.83
2018-06-12T00:32:34.134Z,5.30
2018-06-12T00:35:05.798Z,3.93
2018-06-12T00:37:37.374Z,2.50
2018-06-12T00:40:09.253Z,3.50
2018-06-12T00:42:41.173Z,3.30
2018-06-12T00:45:12.978Z,5.63
2018-06-12T00:47:44.692Z,6.90
2018-06-12T00:50:16.265Z,4.30
2018-06-12T00:52:47.919Z,4.40
2018-06-12T00:55:19.564Z,4.13
2018-06-12T00:57:51.101Z,4.80
2018-06-12T01:00:22.867Z,5.03
2018-06-12T01:02:54.453Z,5.53
2018-06-12T01:05:25.986Z,4.27
2018-06-12T01:07:57.631Z,4.67
2018-06-12T01:10:30.218Z,4.57
2018-06-12T01:13:01.865Z,4.13
2018-06-12T01:15:33.528Z,12.60
2018-06-12T01:18:05.109Z,10.77
2018-06-12T01:20:36.735Z,10.37
2018-06-12T01:23:08.389Z,16.50
2018-06-12T01:25:40.046Z,10.77
2018-06-12T01:28:11.705Z,9.17
2018-06-12T01:30:43.290Z,15.87
2018-06-12T01:33:15.087Z,18.87
2018-06-12T01:35:46.706Z,20.77
2018-06-12T01:38:18.534Z,25.63
2018-06-12T01:40:50.191Z,18.20
2018-06-12T01:43:21.772Z,12.43
2018-06-12T01:45:53.397Z,12.40
2018-06-12T01:48:25.068Z,11.53
2018-06-12T01:50:56.606Z,15.10
2018-06-12T01:53:28.369Z,12.67
2018-06-12T01:56:00.030Z,16.93
2018-06-12T01:58:31.690Z,20.97
2018-06-12T02:01:03.244Z,12.57
2018-06-12T02:03:35.026Z,20.53
2018-06-12T02:06:06.781Z,25.10
2018-06-12T02:08:38.477Z,16.17
2018-06-12T02:11:10.097Z,18.07
2018-06-12T02:13:41.779Z,24.97
2018-06-12T02:16:13.590Z,24.73
2018-06-12T02:18:45.176Z,25.50
2018-06-12T02:21:16.796Z,18.70
2018-06-12T02:23:48.044Z,18.60
2018-06-12T02:26:19.590Z,12.07
2018-06-12T02:28:51.429Z,18.80
2018-06-12T02:31:23.321Z,12.40
2018-06-12T02:33:54.984Z,16.43
2018-06-12T02:36:27.003Z,11.37
2018-06-12T02:38:58.629Z,15.70
2018-06-12T02:41:30.729Z,9.70
2018-06-12T02:44:02.433Z,16.33
2018-06-12T02:46:34.138Z,13.00
2018-06-12T02:49:06.261Z,9.83
2018-06-12T02:51:38.048Z,11.77
2018-06-12T02:54:10.273Z,8.90
2018-06-12T02:56:41.833Z,12.03
2018-06-12T02:59:13.498Z,7.47
2018-06-12T03:01:45.142Z,9.33
2018-06-12T03:04:16.693Z,9.00
2018-06-12T03:06:48.441Z,10.43
2018-06-12T03:09:20.007Z,6.40
2018-06-12T03:11:51.572Z,9.87
2018-06-12T03:14:23.143Z,9.20
2018-06-12T03:16:54.836Z,10.60
2018-06-12T03:19:26.685Z,9.53
2018-06-12T03:21:58.310Z,9.33
2018-06-12T03:24:30.170Z,9.90
2018-06-12T03:27:01.685Z,8.03
2018-06-12T03:29:33.253Z,9.13
2018-06-12T03:32:05.129Z,8.23
2018-06-12T03:34:36.194Z,9.60
2018-06-12T03:37:07.744Z,7.50
2018-06-12T03:39:39.266Z,9.20
2018-06-12T03:42:10.845Z,8.93
2018-06-12T03:44:42.517Z,6.67
2018-06-12T03:47:14.131Z,6.37
2018-06-12T03:49:45.796Z,5.47
2018-06-12T03:52:24.729Z,6.37
2018-06-12T03:54:56.401Z,6.87
2018-06-12T03:57:28.064Z,5.37
2018-06-12T03:59:59.642Z,7.53
2018-06-12T04:02:31.359Z,5.53
2018-06-12T04:05:02.938Z,6.47
2018-06-12T04:07:34.580Z,5.30
2018-06-12T04:10:06.209Z,6.17
2018-06-12T04:12:37.869Z,7.10
2018-06-12T04:15:08.939Z,6.57
2018-06-12T04:17:40.496Z,4.70
2018-06-12T04:20:12.110Z,5.37
2018-06-12T04:22:43.779Z,6.70
2018-06-12T04:25:15.362Z,4.37
2018-06-12T04:27:47.093Z,4.70
2018-06-12T04:30:18.680Z,5.93
2018-06-12T04:32:50.406Z,5.80
2018-06-12T04:35:22.078Z,6.30
2018-06-12T04:37:53.648Z,4.33
2018-06-12T04:40:25.439Z,5.70
2018-06-12T04:42:57.147Z,8.73
2018-06-12T04:45:28.689Z,6.10
2018-06-12T04:48:00.454Z,7.50
2018-06-12T04:50:32.034Z,6.27
2018-06-12T04:53:03.663Z,5.33
2018-06-12T04:55:35.416Z,5.90
2018-06-12T04:58:07.080Z,6.77
2018-06-12T05:00:38.737Z,7.67
2018-06-12T05:03:10.290Z,4.50
2018-06-12T05:05:41.942Z,9.67
2018-06-12T05:08:13.598Z,6.40
2018-06-12T05:10:45.253Z,6.40
2018-06-12T05:13:16.909Z,5.47
2018-06-12T05:15:48.668Z,6.73
2018-06-12T05:18:20.239Z,7.17
2018-06-12T05:20:51.793Z,5.10
2018-06-12T05:23:23.329Z,6.93
2018-06-12T05:25:54.446Z,4.57
2018-06-12T05:28:26.029Z,5.87
2018-06-12T05:30:57.623Z,4.00
2018-06-12T05:33:29.225Z,4.00
2018-06-12T05:36:00.998Z,5.90
2018-06-12T05:38:32.595Z,3.97
2018-06-12T05:41:04.225Z,4.60
2018-06-12T05:43:35.919Z,4.30
2018-06-12T05:46:07.552Z,3.67
2018-06-12T05:48:39.073Z,3.80
2018-06-12T05:51:10.738Z,3.90
2018-06-12T05:53:42.383Z,6.57
2018-06-12T05:56:14.040Z,5.57
2018-06-12T05:58:45.701Z,8.23
2018-06-12T06:01:17.282Z,6.93
2018-06-12T06:03:49.021Z,9.33
2018-06-12T06:06:20.654Z,8.93
2018-06-12T06:08:52.330Z,6.67
2018-06-12T06:11:23.922Z,7.60
2018-06-12T06:13:55.648Z,9.67
2018-06-12T06:16:27.233Z,11.30
2018-06-12T06:18:58.890Z,10.80
2018-06-12T06:21:30.517Z,8.10
2018-06-12T06:24:02.401Z,10.03
2018-06-12T06:26:34.081Z,7.20
2018-06-12T06:29:05.716Z,5.43
2018-06-12T06:31:37.331Z,5.07
2018-06-12T06:34:08.878Z,6.57
2018-06-12T06:36:40.560Z,7.83
2018-06-12T06:39:12.128Z,8.70
2018-06-12T07:08:27.064Z,5.40
2018-06-12T07:10:58.688Z,4.27
2018-06-12T07:13:30.417Z,4.83
2018-06-12T07:16:01.961Z,5.70
2018-06-12T07:18:33.625Z,5.10
2018-06-12T07:21:09.384Z,6.43
2018-06-12T07:23:41.037Z,6.17
2018-06-12T07:26:12.701Z,4.23
2018-06-12T07:28:44.272Z,5.23
2018-06-12T07:31:16.014Z,6.10
2018-06-12T07:33:47.561Z,4.50
2018-06-12T07:36:19.222Z,4.37
2018-06-12T07:38:50.761Z,4.87
2018-06-12T07:41:22.359Z,4.17
2018-06-12T07:43:54.093Z,4.90
2018-06-12T07:46:25.714Z,4.17
2018-06-12T07:48:57.299Z,4.70
2018-06-12T07:51:28.855Z,4.40
2018-06-12T07:54:00.517Z,4.10
2018-06-12T07:56:32.220Z,4.30
2018-06-12T07:59:04.025Z,4.50
2018-06-12T08:01:35.689Z,3.40
2018-06-12T08:04:07.245Z,5.60
2018-06-12T08:06:38.828Z,3.90
2018-06-12T08:09:10.554Z,4.63
2018-06-12T08:11:42.150Z,4.60
2018-06-12T08:14:13.793Z,3.73
2018-06-12T08:16:45.525Z,4.43
2018-06-12T08:19:17.120Z,4.67
2018-06-12T08:21:48.831Z,5.40
2018-06-12T08:24:20.549Z,7.30
2018-06-12T08:26:52.178Z,6.23
2018-06-12T08:29:23.903Z,6.10
2018-06-12T08:31:55.527Z,7.20
2018-06-12T08:34:27.133Z,4.50
2018-06-12T08:36:58.825Z,4.03
2018-06-12T08:39:30.421Z,5.43
2018-06-12T08:42:02.082Z,5.27
2018-06-12T08:44:33.624Z,3.80
2018-06-12T08:47:05.224Z,4.47
2018-06-12T08:49:36.953Z,3.80
2018-06-12T08:52:08.543Z,3.67
2018-06-12T08:54:40.260Z,3.23
2018-06-12T08:57:11.814Z,2.83
2018-06-12T08:59:43.472Z,3.43
2018-06-12T09:02:15.193Z,5.07
2018-06-12T09:04:46.782Z,4.60
2018-06-12T09:07:18.445Z,6.77
2018-06-12T09:09:49.988Z,4.70
2018-06-12T09:12:21.683Z,6.00
2018-06-12T09:14:53.372Z,4.83
2018-06-12T09:17:25.067Z,5.67
2018-06-12T09:19:56.747Z,4.53
2018-06-12T09:22:28.438Z,4.03
2018-06-12T09:25:00.054Z,4.80
2018-06-12T09:27:35.789Z,3.70
2018-06-12T09:30:07.467Z,4.20
2018-06-12T09:32:38.991Z,4.37
2018-06-12T09:35:10.664Z,4.90
2018-06-12T09:37:42.317Z,6.33
2018-06-12T09:40:13.866Z,4.70
2018-06-12T09:42:45.536Z,5.00
2018-06-12T09:45:17.389Z,5.03
2018-06-12T09:47:48.969Z,7.73
2018-06-12T09:50:20.521Z,6.00
2018-06-12T09:52:52.145Z,5.20
2018-06-12T09:55:23.808Z,5.20
2018-06-12T09:57:55.386Z,4.63
2018-06-12T10:00:32.137Z,6.53
2018-06-12T10:03:03.795Z,5.23
2018-06-12T10:05:35.661Z,5.53
2018-06-12T10:08:07.416Z,5.67
2018-06-12T10:10:38.970Z,5.87
2018-06-12T10:13:10.521Z,4.27
2018-06-12T10:15:42.181Z,4.23
2018-06-12T10:18:13.833Z,3.73
2018-06-12T10:20:45.411Z,4.37
2018-06-12T10:23:16.967Z,4.23
2018-06-12T10:25:48.605Z,3.87
2018-06-12T10:28:20.169Z,5.40
2018-06-12T10:30:51.911Z,4.90
2018-06-12T10:33:23.609Z,4.90
2018-06-12T10:35:55.434Z,4.27
2018-06-12T10:38:27.030Z,7.30
2018-06-12T10:40:58.741Z,4.70
2018-06-12T10:43:30.504Z,9.10
2018-06-12T10:46:02.261Z,9.13
2018-06-12T10:48:33.976Z,8.17
2018-06-12T10:51:05.626Z,7.37
2018-06-12T10:53:37.339Z,5.17
2018-06-12T10:56:08.999Z,4.83
2018-06-12T10:58:40.644Z,3.93
2018-06-12T11:01:12.153Z,5.13
2018-06-12T11:03:43.810Z,5.47
2018-06-12T11:06:15.444Z,5.93
2018-06-12T11:08:47.070Z,4.70
2018-06-12T11:11:18.649Z,4.80
2018-06-12T11:13:50.280Z,5.90
2018-06-12T11:16:21.940Z,4.77
2018-06-12T11:18:53.587Z,5.00
2018-06-12T11:21:25.124Z,3.77
2018-06-12T11:23:56.856Z,5.87
2018-06-12T11:26:28.471Z,6.37
2018-06-12T11:29:00.110Z,5.10
2018-06-12T11:31:31.812Z,5.90
2018-06-12T11:34:03.541Z,7.60
2018-06-12T11:36:35.187Z,4.57
2018-06-12T11:39:08.455Z,4.37
2018-06-12T11:41:40.063Z,5.40
2018-06-12T11:44:11.688Z,6.10
2018-06-12T11:46:43.225Z,7.83
2018-06-12T11:49:14.893Z,6.20
2018-06-12T11:51:46.463Z,5.37
2018-06-12T11:54:18.111Z,6.37
2018-06-12T11:56:49.766Z,7.50
2018-06-12T11:59:21.444Z,6.03
2018-06-12T12:01:53.080Z,5.90
2018-06-12T12:04:24.775Z,5.70
2018-06-12T12:06:56.607Z,4.87
2018-06-12T12:09:28.144Z,8.00
2018-06-12T12:11:59.909Z,5.80
2018-06-12T12:14:31.565Z,6.47
2018-06-12T12:17:03.272Z,5.93
2018-06-12T12:19:35.038Z,5.43
2018-06-12T12:22:06.842Z,4.03
2018-06-12T12:24:38.501Z,4.33
2018-06-12T12:27:10.212Z,3.70
2018-06-12T12:29:41.810Z,8.60
2018-06-12T12:32:13.469Z,5.93
2018-06-12T12:34:45.022Z,4.77
2018-06-12T12:37:16.578Z,5.33
2018-06-12T12:39:48.121Z,3.60
2018-06-12T12:42:19.716Z,4.13
2018-06-12T12:44:51.333Z,3.47
2018-06-12T12:47:23.033Z,3.37
2018-06-12T12:49:54.761Z,3.60
2018-06-12T12:52:26.412Z,4.50
2018-06-12T12:54:58.113Z,4.00
2018-06-12T12:57:29.781Z,5.53
2018-06-12T13:00:01.372Z,6.33
2018-06-12T13:02:32.919Z,5.57
2018-06-12T13:05:04.802Z,4.03
2018-06-12T13:07:36.297Z,4.40
2018-06-12T13:10:08.040Z,4.10
2018-06-12T13:12:39.765Z,3.73
2018-06-12T13:15:11.423Z,5.00
2018-06-12T13:17:42.957Z,3.00
2018-06-12T13:20:14.664Z,3.37
2018-06-12T13:22:46.248Z,3.20
2018-06-12T13:25:17.954Z,2.90
2018-06-12T13:27:49.445Z,4.90
2018-06-12T13:30:21.062Z,5.20
2018-06-12T13:32:52.557Z,7.60
2018-06-12T13:35:24.189Z,5.93
2018-06-12T13:37:55.924Z,4.80
2018-06-12T13:40:27.476Z,5.00
2018-06-12T13:42:59.176Z,6.50
2018-06-12T13:45:30.956Z,5.73
2018-06-12T13:48:02.545Z,5.67
2018-06-12T13:50:34.209Z,8.83
2018-06-12T13:53:05.880Z,6.73
2018-06-12T13:55:37.448Z,5.83
2018-06-12T13:58:09.174Z,11.33
2018-06-12T14:00:40.722Z,6.70
2018-06-12T14:03:12.345Z,8.47
2018-06-12T14:05:44.049Z,8.03
2018-06-12T14:08:15.548Z,6.27
2018-06-12T14:10:47.308Z,5.37
2018-06-12T14:13:18.961Z,8.20
2018-06-12T14:15:50.726Z,6.63
2018-06-12T14:18:22.278Z,6.10
2018-06-12T14:20:53.976Z,4.77
2018-06-12T14:23:25.485Z,4.83
2018-06-12T14:25:57.084Z,5.10
2018-06-12T14:28:28.593Z,4.10
2018-06-12T14:31:00.225Z,7.40
2018-06-12T14:33:31.816Z,5.87
2018-06-12T14:36:03.441Z,6.53
2018-06-12T14:38:35.164Z,7.53
2018-06-12T14:41:06.712Z,6.73
2018-06-12T14:43:38.386Z,5.00
2018-06-12T14:46:09.959Z,5.97
2018-06-12T14:48:41.590Z,7.97
2018-06-12T14:51:13.165Z,4.67
2018-06-12T14:53:44.897Z,6.97
2018-06-12T14:56:16.553Z,6.70
2018-06-12T14:58:48.123Z,7.43
2018-06-12T15:01:19.821Z,5.60
2018-06-12T15:03:51.421Z,5.03
2018-06-12T15:06:22.544Z,6.70
2018-06-12T15:08:54.051Z,5.97
2018-06-12T15:11:25.782Z,6.43
2018-06-12T15:13:57.353Z,6.10
2018-06-12T15:16:29.234Z,5.93
2018-06-12T15:19:00.762Z,7.37
2018-06-12T15:21:32.400Z,6.50
2018-06-12T15:24:03.958Z,9.00
2018-06-12T15:26:35.542Z,5.93
2018-06-12T15:29:07.166Z,6.33
2018-06-12T15:31:38.755Z,6.97
2018-06-12T15:34:10.443Z,7.90
2018-06-12T15:36:42.029Z,6.07
2018-06-12T15:39:13.609Z,7.10
2018-06-12T15:41:45.232Z,6.27
2018-06-12T15:44:16.895Z,7.50
2018-06-12T15:46:48.566Z,8.00
2018-06-12T15:49:20.142Z,6.13
2018-06-12T15:51:51.875Z,8.23
2018-06-12T15:54:23.526Z,6.00
2018-06-12T15:56:55.108Z,6.40
2018-06-12T15:59:26.802Z,6.20
2018-06-12T16:01:58.387Z,7.03
2018-06-12T16:04:30.059Z,9.17
2018-06-12T16:07:01.701Z,7.30
2018-06-12T16:09:33.288Z,6.60
2018-06-12T16:12:04.821Z,8.77
2018-06-12T16:14:36.476Z,9.63
2018-06-12T16:17:08.177Z,6.63
2018-06-12T16:19:39.776Z,5.00
2018-06-12T16:22:11.448Z,5.07
2018-06-12T16:24:43.097Z,5.07
2018-06-12T16:27:14.675Z,5.57
2018-06-12T16:29:46.207Z,4.30
2018-06-12T16:32:17.782Z,4.70
2018-06-12T16:34:49.320Z,8.07
2018-06-12T16:37:20.978Z,7.27
2018-06-12T16:39:52.525Z,12.63
2018-06-12T16:42:24.114Z,6.47
2018-06-12T16:44:55.833Z,6.87
2018-06-12T16:47:27.422Z,12.27
2018-06-12T16:49:59.251Z,14.27
2018-06-12T16:52:30.860Z,10.00
2018-06-12T16:55:02.492Z,12.87
2018-06-12T16:57:34.133Z,13.13
2018-06-12T17:00:05.970Z,7.57
2018-06-12T17:02:37.641Z,8.20
2018-06-12T17:05:09.313Z,7.80
2018-06-12T17:07:40.964Z,11.50
2018-06-12T17:10:12.541Z,10.77
2018-06-12T17:12:44.268Z,6.77
2018-06-12T17:15:15.917Z,6.37
2018-06-12T17:17:47.499Z,5.60
2018-06-12T17:20:19.022Z,5.70
2018-06-12T17:22:50.609Z,4.77
2018-06-12T17:25:22.242Z,12.27
2018-06-12T17:27:53.817Z,7.17
2018-06-12T17:30:25.344Z,12.03
2018-06-12T17:32:57.014Z,8.00
2018-06-12T17:35:28.766Z,7.17
2018-06-12T17:38:00.425Z,9.37
2018-06-12T17:40:31.956Z,5.57
2018-06-12T17:43:03.633Z,6.77
2018-06-12T17:45:35.203Z,7.00
2018-06-12T17:48:06.836Z,8.80
2018-06-12T17:50:38.696Z,9.57
2018-06-12T17:53:10.361Z,8.23
2018-06-12T17:55:42.014Z,12.07
2018-06-12T17:58:13.561Z,8.67
2018-06-12T18:00:45.114Z,7.63
2018-06-12T18:03:16.715Z,6.70
2018-06-12T18:05:48.498Z,7.93
2018-06-12T18:08:20.121Z,8.27
2018-06-12T18:10:51.831Z,9.10
2018-06-12T18:13:23.638Z,11.03
2018-06-12T18:15:55.420Z,7.87
2018-06-12T18:18:27.135Z,16.53
2018-06-12T18:20:58.710Z,20.23
2018-06-12T18:23:30.745Z,12.70
2018-06-12T18:26:02.333Z,13.53
2018-06-12T18:28:34.120Z,17.87
2018-06-12T18:31:05.748Z,16.13
2018-06-12T18:33:37.405Z,12.30
2018-06-12T18:36:09.244Z,10.33
2018-06-12T18:38:40.777Z,12.27
2018-06-12T18:41:12.346Z,22.30
2018-06-12T18:43:43.921Z,17.47
2018-06-12T18:46:15.855Z,18.10
2018-06-12T18:48:47.525Z,23.27
2018-06-12T18:51:19.178Z,20.50
2018-06-12T18:53:50.890Z,22.87
2018-06-12T18:56:22.488Z,17.77
2018-06-12T18:58:54.205Z,15.07
2018-06-12T19:01:25.833Z,14.93
2018-06-12T19:03:57.569Z,15.77
2018-06-12T19:06:29.290Z,13.10
2018-06-12T19:09:00.978Z,10.90
2018-06-12T19:11:32.557Z,11.03
2018-06-12T19:14:04.386Z,12.87
2018-06-12T19:16:36.043Z,11.27
2018-06-12T19:19:07.641Z,11.77
2018-06-12T19:21:39.397Z,11.20
2018-06-12T19:24:11.042Z,12.33
2018-06-12T19:26:42.694Z,10.60
2018-06-12T19:29:14.342Z,11.17
2018-06-12T19:31:45.912Z,9.83
2018-06-12T19:34:17.533Z,13.90
2018-06-12T19:36:49.194Z,11.57
2018-06-12T19:39:20.788Z,10.13
2018-06-12T19:41:52.405Z,15.00
2018-06-12T19:44:23.961Z,13.20
2018-06-12T19:46:55.627Z,14.23
2018-06-12T19:49:27.329Z,9.20
2018-06-12T19:51:58.925Z,10.97
2018-06-12T19:54:30.629Z,8.83
2018-06-12T19:57:02.369Z,10.30
2018-06-12T19:59:34.100Z,14.53
2018-06-12T20:02:05.769Z,14.50
2018-06-12T20:04:37.417Z,15.53
2018-06-12T20:07:08.873Z,12.67
2018-06-12T20:09:40.425Z,9.80
2018-06-12T20:12:12.077Z,13.03
2018-06-12T20:14:43.643Z,13.10
2018-06-12T20:17:15.165Z,12.23
2018-06-12T20:19:46.911Z,8.40
2018-06-12T20:22:18.607Z,8.40
2018-06-12T20:24:50.243Z,7.30
2018-06-12T20:27:21.829Z,8.00
2018-06-12T20:29:53.364Z,13.80
2018-06-12T20:32:25.688Z,12.57
2018-06-12T20:34:57.325Z,12.57
2018-06-12T20:37:28.942Z,9.87
2018-06-12T20:40:00.707Z,8.37
2018-06-12T20:42:32.281Z,9.30
2018-06-12T20:45:03.878Z,8.67
2018-06-12T20:47:35.469Z,8.80
2018-06-12T20:50:07.059Z,8.33
2018-06-12T20:52:38.809Z,8.00
2018-06-12T20:55:10.573Z,8.83
2018-06-12T20:57:42.366Z,8.40
2018-06-12T21:00:13.971Z,9.83
2018-06-12T21:02:45.714Z,9.53
2018-06-12T21:05:17.369Z,9.77
2018-06-12T21:07:49.185Z,10.97
2018-06-12T21:10:20.820Z,8.57
2018-06-12T21:12:52.437Z,7.40
2018-06-12T21:15:24.001Z,8.90
2018-06-12T21:17:55.706Z,9.17
2018-06-12T21:20:27.421Z,9.50
2018-06-12T21:22:59.069Z,8.90
2018-06-12T21:25:30.622Z,9.57
2018-06-12T21:28:02.345Z,8.17
2018-06-12T21:30:34.044Z,10.20
2018-06-12T21:33:05.622Z,8.83
2018-06-12T21:35:37.349Z,7.67
2018-06-12T21:38:08.892Z,6.43
2018-06-12T21:40:40.561Z,7.17
2018-06-12T21:43:12.286Z,6.80
2018-06-12T21:45:43.868Z,6.33
2018-06-12T21:48:15.416Z,6.23
2018-06-12T21:50:47.093Z,6.43
2018-06-12T21:53:18.751Z,5.73
2018-06-12T21:55:50.329Z,6.10
2018-06-12T21:58:22.049Z,7.17
2018-06-12T22:00:53.709Z,5.93
2018-06-12T22:03:25.362Z,5.03
2018-06-12T22:05:57.129Z,4.00
2018-06-12T22:08:28.702Z,4.83
2018-06-12T22:11:00.341Z,5.27
2018-06-12T22:13:31.889Z,5.07
2018-06-12T22:16:03.469Z,6.20
2018-06-12T22:18:35.101Z,6.80
2018-06-12T22:21:06.769Z,7.73
2018-06-12T22:23:38.413Z,6.70
2018-06-12T22:26:09.997Z,6.67
2018-06-12T22:28:41.730Z,5.60
2018-06-12T22:31:13.283Z,5.00
2018-06-12T22:33:44.931Z,4.00
2018-06-12T22:36:16.521Z,5.10
2018-06-12T22:38:48.211Z,4.57
2018-06-12T22:41:19.794Z,5.00
2018-06-12T22:43:51.376Z,4.43
2018-06-12T22:46:23.072Z,5.80
2018-06-12T22:48:54.905Z,4.87
2018-06-12T22:51:26.649Z,4.23
2018-06-12T22:53:58.284Z,4.77
2018-06-12T22:56:29.880Z,4.30
2018-06-12T22:59:01.674Z,4.50
2018-06-12T23:01:33.262Z,4.00
2018-06-12T23:04:04.917Z,3.97
2018-06-12T23:06:36.728Z,3.60
2018-06-12T23:09:10.036Z,3.67
2018-06-12T23:11:41.881Z,4.20
2018-06-12T23:14:13.695Z,4.10
2018-06-12T23:16:45.458Z,4.03
2018-06-12T23:19:17.008Z,3.67
2018-06-12T23:22:01.387Z,3.97
2018-06-12T23:24:33.072Z,4.40
2018-06-12T23:27:04.738Z,3.80
2018-06-12T23:29:36.443Z,3.77
2018-06-12T23:32:08.013Z,4.23
2018-06-12T23:34:39.643Z,4.50
2018-06-12T23:37:11.195Z,3.83
2018-06-12T23:39:42.859Z,5.27
2018-06-12T23:42:14.401Z,4.63
2018-06-12T23:44:46.009Z,3.70
2018-06-12T23:47:17.729Z,3.67
2018-06-12T23:49:48.838Z,3.87
2018-06-12T23:52:20.468Z,3.33
2018-06-12T23:54:52.130Z,4.87
2018-06-12T23:57:23.936Z,4.23
2018-06-12T23:59:55.438Z,4.43
